Costa Pacifica — ICJA — position and weather

sailwx.info

Track history (hours):
 
Tides and Currents Weather Stations Pressure Air Temp Water Temp Dewpoint Dewpoint Depression Visibility Wind Speed Wind Dir Waves Ship Positions

Costa Pacifica

Last reported at 2018-Feb-24 11:59 UTC. Time now 2018-Feb-24 12:16 UTC.
Position N 16°14' W 061°32'.

Length 290 m; draft 8.3 m.

Type: Ship. MMSI: 247258100.

Date/timePositionNaut miles runAvg speedWind from/ knotsBaromVisibWave heightAir tempDewpointWater temp
2018-Feb-24 11:59N 16°14' W 061°32'0 0.0
2018-Feb-24 11:30N 16°14' W 061°32'1 2.5
2018-Feb-24 11:00N 16°13' W 061°32'4 5.8
2018-Feb-24 10:19N 16°10' W 061°29'2 7.2
2018-Feb-24 10:00N 16°08' W 061°28'2111.1
2018-Feb-24 08:09N 15°48' W 061°33'211.1
2018-Feb-24 07:59N 15°46' W 061°34'6912.3
2018-Feb-24 02:23N 14°40' W 061°16'513.1
2018-Feb-24 02:01N 14°37' W 061°12'612.3
2018-Feb-24 01:30N 14°35' W 061°06'3 5.2
2018-Feb-24 01:00N 14°36' W 061°04'0 0.0
2018-Feb-24 00:30N 14°36' W 061°04'0 0.0
2018-Feb-23 23:59N 14°36' W 061°04'0 0.0
2018-Feb-23 23:14N 14°36' W 061°04'0 0.0
2018-Feb-23 22:56N 14°36' W 061°04'0 0.0
2018-Feb-23 22:29N 14°36' W 061°04'0 0.0
2018-Feb-23 21:58N 14°36' W 061°04'0 0.0
2018-Feb-23 21:28N 14°36' W 061°04'0 0.0
2018-Feb-23 20:58N 14°36' W 061°04'0 0.0
2018-Feb-23 20:28N 14°36' W 061°04'0 0.0
2018-Feb-23 19:58N 14°36' W 061°04'0 0.0
2018-Feb-23 19:30N 14°36' W 061°04'0 0.0
2018-Feb-23 19:00N 14°36' W 061°04'0 0.0
2018-Feb-23 18:30N 14°36' W 061°04'0 0.0
2018-Feb-23 18:00N 14°36' W 061°04'0 0.0
2018-Feb-23 17:30N 14°36' W 061°04'0 0.0
2018-Feb-23 16:59N 14°36' W 061°04'0 0.0
2018-Feb-23 16:26N 14°36' W 061°04'0 0.0
2018-Feb-23 15:59N 14°36' W 061°04'0 0.0
2018-Feb-23 15:29N 14°36' W 061°04'0 0.0
2018-Feb-23 14:58N 14°36' W 061°04'0 0.0
2018-Feb-23 14:28N 14°36' W 061°04'0 0.0
2018-Feb-23 13:58N 14°36' W 061°04'0 0.0
2018-Feb-23 13:28N 14°36' W 061°04'0 0.0
2018-Feb-23 12:58N 14°36' W 061°04'0 0.3
2018-Feb-23 12:30N 14°36' W 061°04'4 5.3
2018-Feb-23 11:39N 14°36' W 061°08'213.1
2018-Feb-23 11:30N 14°36' W 061°10'4717.8
2018-Feb-23 08:52N 15°18' W 061°33'713.0
2018-Feb-23 08:22N 15°24' W 061°35'513.4
2018-Feb-23 07:59N 15°29' W 061°38'713.0
2018-Feb-23 07:27N 15°35' W 061°41'1012.1
2018-Feb-23 06:36N 15°44' W 061°46'311.4
2018-Feb-23 06:20N 15°47' W 061°47'2211.9
2018-Feb-23 04:31N 16°06' W 061°57'011.7
2018-Feb-23 04:30N 16°06' W 061°57'611.7
2018-Feb-23 04:00N 16°11' W 062°00'510.8
2018-Feb-23 03:30N 16°16' W 062°02'510.6
2018-Feb-23 03:00N 16°22' W 062°02'511.0
2018-Feb-23 02:30N 16°27' W 062°01'611.2
2018-Feb-23 02:00N 16°33' W 062°01'611.5
2018-Feb-23 01:30N 16°38' W 061°60'612.3
2018-Feb-23 01:00N 16°44' W 061°60'612.2
2018-Feb-23 00:30N 16°51' W 062°00'612.1
2018-Feb-23 00:00N 16°57' W 061°59'612.3
2018-Feb-22 23:30N 17°03' W 061°58'611.3
2018-Feb-22 23:00N 17°08' W 061°58'510.3
2018-Feb-22 22:29N 17°08' W 061°52'1 2.2
2018-Feb-22 21:58N 17°07' W 061°51'0 0.0
2018-Feb-22 21:28N 17°07' W 061°51'0 0.0
2018-Feb-22 20:58N 17°07' W 061°51'0 0.0
2018-Feb-22 20:30N 17°07' W 061°51'0 0.0
2018-Feb-22 20:00N 17°07' W 061°51'0 0.0
2018-Feb-22 19:30N 17°07' W 061°51'0 0.0
2018-Feb-22 19:00N 17°07' W 061°51'0 0.0
2018-Feb-22 18:30N 17°07' W 061°51'0 0.0
2018-Feb-22 17:59N 17°07' W 061°51'0 0.0
2018-Feb-22 17:29N 17°07' W 061°51'0 0.0
2018-Feb-22 16:59N 17°07' W 061°51'0 0.0
2018-Feb-22 16:29N 17°07' W 061°51'0 0.0
2018-Feb-22 15:59N 17°07' W 061°51'0 0.0
2018-Feb-22 15:28N 17°07' W 061°51'0 0.0
2018-Feb-22 14:58N 17°07' W 061°51'0 0.0
2018-Feb-22 14:28N 17°07' W 061°51'0 0.0
2018-Feb-22 13:58N 17°07' W 061°51'0 0.0
2018-Feb-22 13:30N 17°07' W 061°51'0 0.0
2018-Feb-22 13:00N 17°07' W 061°51'0 0.0
2018-Feb-22 12:30N 17°07' W 061°51'0 0.0
2018-Feb-22 12:00N 17°07' W 061°51'0 0.0
2018-Feb-22 11:29N 17°07' W 061°51'1 2.4
2018-Feb-22 11:00N 17°08' W 061°52'3 6.8
2018-Feb-22 10:30N 17°10' W 061°55'1 2.8
2018-Feb-22 10:00N 17°09' W 061°54'4 7.4
2018-Feb-22 09:30N 17°09' W 061°58'611.0
2018-Feb-22 09:00N 17°05' W 062°02'510.8
2018-Feb-22 08:30N 17°01' W 062°06'510.2
2018-Feb-22 08:00N 16°58' W 062°11'510.0
2018-Feb-22 07:30N 16°55' W 062°15'5 9.9
2018-Feb-22 07:00N 16°53' W 062°19'510.5
2018-Feb-22 06:30N 16°50' W 062°24'510.7
2018-Feb-22 06:00N 16°47' W 062°29'510.5
2018-Feb-22 05:30N 16°44' W 062°33'5 9.7
2018-Feb-22 05:00N 16°43' W 062°38'1111.3
2018-Feb-22 04:00N 16°49' W 062°48'28 2.5
2018-Feb-21 16:52N 17°17' W 062°44'615.9
2018-Feb-21 16:30N 17°15' W 062°50'1020.2
2018-Feb-21 16:00N 17°13' W 062°60'2320.3
2018-Feb-21 14:52N 17°07' W 063°23'  
2018-Feb-18 05:57N 15°53' W 061°48'2111.3
2018-Feb-18 04:04N 16°07' W 061°31'210.6
2018-Feb-18 03:54N 16°09' W 061°31'4 7.9
2018-Feb-18 03:26N 16°12' W 061°32'2 4.6
2018-Feb-18 03:00N 16°14' W 061°32'0 0.0
2018-Feb-18 02:30N 16°14' W 061°32'0 0.0
2018-Feb-18 01:57N 16°14' W 061°32'0 0.0
2018-Feb-18 01:30N 16°14' W 061°32'0 0.0
2018-Feb-18 00:53N 16°14' W 061°32'0 0.0
2018-Feb-18 00:29N 16°14' W 061°32'0 0.0
2018-Feb-17 23:53N 16°14' W 061°32'0 0.0
2018-Feb-17 23:26N 16°14' W 061°32'0 0.0
2018-Feb-17 22:56N 16°14' W 061°32'0 0.0
2018-Feb-17 22:22N 16°14' W 061°32'0 0.0
2018-Feb-17 21:55N 16°14' W 061°32'0 0.0
2018-Feb-17 21:28N 16°14' W 061°32'0 0.0
2018-Feb-17 20:40N 16°14' W 061°32'0 0.0
2018-Feb-17 20:22N 16°14' W 061°32'0 0.0
2018-Feb-17 19:54N 16°14' W 061°32'0 0.0
2018-Feb-17 19:30N 16°14' W 061°32'0 0.0
2018-Feb-17 18:54N 16°14' W 061°32'0 0.0
2018-Feb-17 17:59N 16°14' W 061°32'0 0.0
2018-Feb-17 17:29N 16°14' W 061°32'0 0.0
2018-Feb-17 16:59N 16°14' W 061°32'0 0.0
2018-Feb-17 16:29N 16°14' W 061°32'0 0.0
2018-Feb-17 15:56N 16°14' W 061°32'0 0.0
2018-Feb-17 15:25N 16°14' W 061°32'0 0.0
2018-Feb-17 14:58N 16°14' W 061°32'0 0.0
2018-Feb-17 14:25N 16°14' W 061°32'0 0.0
2018-Feb-17 13:58N 16°14' W 061°32'0 0.0
2018-Feb-17 13:18N 16°14' W 061°32'0 0.0
2018-Feb-17 12:51N 16°14' W 061°32'0 0.0
2018-Feb-17 12:24N 16°14' W 061°32'0 0.0
2018-Feb-17 11:45N 16°14' W 061°32'0 0.0
2018-Feb-17 11:30N 16°14' W 061°32'2 3.3
2018-Feb-17 11:00N 16°13' W 061°32'3 6.9
2018-Feb-17 10:30N 16°09' W 061°31'4 7.5
2018-Feb-17 10:00N 16°06' W 061°28'510.7
2018-Feb-17 09:30N 16°01' W 061°29'1311.5
2018-Feb-17 08:20N 15°48' W 061°33'7012.0
2018-Feb-17 02:29N 14°40' W 061°17'612.3
2018-Feb-17 01:58N 14°36' W 061°11'612.5
2018-Feb-17 01:30N 14°35' W 061°05'2 4.1
2018-Feb-17 01:00N 14°36' W 061°04'0 0.0
2018-Feb-17 00:30N 14°36' W 061°04'0 0.0
2018-Feb-17 00:00N 14°36' W 061°04'0 0.0
2018-Feb-16 23:30N 14°36' W 061°04'0 0.0
2018-Feb-16 22:59N 14°36' W 061°04'0 0.0
2018-Feb-16 22:29N 14°36' W 061°04'0 0.0
2018-Feb-16 21:59N 14°36' W 061°04'0 0.0
2018-Feb-16 21:29N 14°36' W 061°04'0 0.0
2018-Feb-16 20:58N 14°36' W 061°04'0 0.0
2018-Feb-16 20:25N 14°36' W 061°04'0 0.0
2018-Feb-16 19:58N 14°36' W 061°04'0 0.0
2018-Feb-16 19:28N 14°36' W 061°04'0 0.0
2018-Feb-16 18:58N 14°36' W 061°04'0 0.0
2018-Feb-16 18:30N 14°36' W 061°04'0 0.0
2018-Feb-16 18:00N 14°36' W 061°04'0 0.0
2018-Feb-16 17:30N 14°36' W 061°04'0 0.0
2018-Feb-16 17:00N 14°36' W 061°04'0 0.0
2018-Feb-16 16:23N 14°36' W 061°04'0 0.0
2018-Feb-16 15:56N 14°36' W 061°04'0 0.0
2018-Feb-16 15:29N 14°36' W 061°04'0 0.0
2018-Feb-16 14:59N 14°36' W 061°04'0 0.0
2018-Feb-16 14:29N 14°36' W 061°04'0 0.0
2018-Feb-16 13:58N 14°36' W 061°04'0 0.0
2018-Feb-16 13:28N 14°36' W 061°04'0 0.0
2018-Feb-16 12:58N 14°36' W 061°04'0 0.3
2018-Feb-16 12:30N 14°36' W 061°04'2 3.1
2018-Feb-16 12:00N 14°35' W 061°05'913.8
2018-Feb-16 11:23N 14°39' W 061°12'4113.8
2018-Feb-16 08:24N 15°16' W 061°32'913.5
2018-Feb-16 07:45N 15°24' W 061°35'313.3
2018-Feb-16 07:30N 15°27' W 061°37'712.9
2018-Feb-16 06:58N 15°33' W 061°40'612.6
2018-Feb-16 06:30N 15°38' W 061°43'712.3
2018-Feb-16 05:57N 15°44' W 061°46'612.5
2018-Feb-16 05:26N 15°50' W 061°49'1812.8
2018-Feb-16 04:00N 16°07' W 061°57'713.0
2018-Feb-16 03:30N 16°13' W 061°60'612.3
2018-Feb-16 03:00N 16°18' W 062°02'612.5
2018-Feb-16 02:30N 16°25' W 062°01'612.4
2018-Feb-16 02:00N 16°31' W 062°01'612.4
2018-Feb-16 01:30N 16°37' W 062°00'612.5
2018-Feb-16 01:00N 16°43' W 061°60'612.7
2018-Feb-16 00:30N 16°50' W 061°59'713.0
2018-Feb-16 00:00N 16°56' W 061°59'713.1
2018-Feb-15 23:30N 17°03' W 061°59'612.2
2018-Feb-15 23:00N 17°09' W 061°57'510.1
2018-Feb-15 22:30N 17°08' W 061°52'1 2.1
2018-Feb-15 22:00N 17°07' W 061°51'0 0.0
2018-Feb-15 21:29N 17°07' W 061°51'0 0.0
2018-Feb-15 20:59N 17°07' W 061°51'0 0.0
2018-Feb-15 20:29N 17°07' W 061°51'0 0.0
2018-Feb-15 19:59N 17°07' W 061°51'0 0.0
2018-Feb-15 19:28N 17°07' W 061°51'0 0.0
2018-Feb-15 18:58N 17°07' W 061°51'0 0.0
2018-Feb-15 18:28N 17°07' W 061°51'0 0.0
2018-Feb-15 17:58N 17°07' W 061°51'0 0.0
2018-Feb-15 17:28N 17°07' W 061°51'0 0.0
2018-Feb-15 17:00N 17°07' W 061°51'0 0.0
2018-Feb-15 16:30N 17°07' W 061°51'0 0.0
2018-Feb-15 16:00N 17°07' W 061°51'0 0.0
2018-Feb-15 15:30N 17°07' W 061°51'0 0.0
2018-Feb-15 14:57N 17°07' W 061°51'0 0.0
2018-Feb-15 14:29N 17°07' W 061°51'0 0.0
2018-Feb-15 13:59N 17°07' W 061°51'0 0.0
2018-Feb-15 13:29N 17°07' W 061°51'0 0.0
2018-Feb-15 12:59N 17°07' W 061°51'0 0.0
2018-Feb-15 12:28N 17°07' W 061°51'0 0.0
2018-Feb-15 11:58N 17°07' W 061°51'0 0.0
2018-Feb-15 11:28N 17°07' W 061°51'0 0.0
2018-Feb-15 10:55N 17°07' W 061°51'0 0.1
2018-Feb-15 10:30N 17°07' W 061°51'3 5.7
2018-Feb-15 10:00N 17°08' W 061°54'4 7.8
2018-Feb-15 09:29N 17°09' W 061°58'5 9.8
2018-Feb-15 09:00N 17°05' W 062°02'510.6
2018-Feb-15 08:30N 17°02' W 062°06'611.1
2018-Feb-15 08:00N 16°58' W 062°10'611.0
2018-Feb-15 07:30N 16°54' W 062°14'510.8
2018-Feb-15 07:00N 16°51' W 062°18'611.0
2018-Feb-15 06:30N 16°47' W 062°22'611.1
2018-Feb-15 06:00N 16°43' W 062°27'611.3
2018-Feb-15 05:30N 16°39' W 062°31'5 9.9
2018-Feb-15 05:00N 16°39' W 062°36'1611.8
2018-Feb-15 03:38N 16°50' W 062°48'910.7
2018-Feb-15 02:48N 16°58' W 062°51'18 1.8
2018-Feb-14 17:05N 17°16' W 062°48'420.1
2018-Feb-14 16:53N 17°15' W 062°51'820.2
2018-Feb-14 16:30N 17°13' W 062°59'1720.0
2018-Feb-14 15:38N 17°08' W 063°17'  
Track history (hours):
 
Tides and Currents Weather Stations Pressure Air Temp Water Temp Dewpoint Dewpoint Depression Visibility Wind Speed Wind Dir Waves Ship Positions

Costa Pacifica

Last reported at 2018-Feb-24 11:59 UTC. Time now 2018-Feb-24 12:16 UTC.
Position N 16°14' W 061°32'.

Length 290 m; draft 8.3 m.

Type: Ship. MMSI: 247258100.

Date/timePositionNaut miles runAvg speedWind from/ knotsBaromVisibWave heightAir tempDewpointWater temp
2018-Feb-24 11:59N 16°14' W 061°32'0 0.0
2018-Feb-24 11:30N 16°14' W 061°32'1 2.5
2018-Feb-24 11:00N 16°13' W 061°32'4 5.8
2018-Feb-24 10:19N 16°10' W 061°29'2 7.2
2018-Feb-24 10:00N 16°08' W 061°28'2111.1
2018-Feb-24 08:09N 15°48' W 061°33'211.1
2018-Feb-24 07:59N 15°46' W 061°34'6912.3
2018-Feb-24 02:23N 14°40' W 061°16'513.1
2018-Feb-24 02:01N 14°37' W 061°12'612.3
2018-Feb-24 01:30N 14°35' W 061°06'3 5.2
2018-Feb-24 01:00N 14°36' W 061°04'0 0.0
2018-Feb-24 00:30N 14°36' W 061°04'0 0.0
2018-Feb-23 23:59N 14°36' W 061°04'0 0.0
2018-Feb-23 23:14N 14°36' W 061°04'0 0.0
2018-Feb-23 22:56N 14°36' W 061°04'0 0.0
2018-Feb-23 22:29N 14°36' W 061°04'0 0.0
2018-Feb-23 21:58N 14°36' W 061°04'0 0.0
2018-Feb-23 21:28N 14°36' W 061°04'0 0.0
2018-Feb-23 20:58N 14°36' W 061°04'0 0.0
2018-Feb-23 20:28N 14°36' W 061°04'0 0.0
2018-Feb-23 19:58N 14°36' W 061°04'0 0.0
2018-Feb-23 19:30N 14°36' W 061°04'0 0.0
2018-Feb-23 19:00N 14°36' W 061°04'0 0.0
2018-Feb-23 18:30N 14°36' W 061°04'0 0.0
2018-Feb-23 18:00N 14°36' W 061°04'0 0.0
2018-Feb-23 17:30N 14°36' W 061°04'0 0.0
2018-Feb-23 16:59N 14°36' W 061°04'0 0.0
2018-Feb-23 16:26N 14°36' W 061°04'0 0.0
2018-Feb-23 15:59N 14°36' W 061°04'0 0.0
2018-Feb-23 15:29N 14°36' W 061°04'0 0.0
2018-Feb-23 14:58N 14°36' W 061°04'0 0.0
2018-Feb-23 14:28N 14°36' W 061°04'0 0.0
2018-Feb-23 13:58N 14°36' W 061°04'0 0.0
2018-Feb-23 13:28N 14°36' W 061°04'0 0.0
2018-Feb-23 12:58N 14°36' W 061°04'0 0.3
2018-Feb-23 12:30N 14°36' W 061°04'4 5.3
2018-Feb-23 11:39N 14°36' W 061°08'213.1
2018-Feb-23 11:30N 14°36' W 061°10'4717.8
2018-Feb-23 08:52N 15°18' W 061°33'713.0
2018-Feb-23 08:22N 15°24' W 061°35'513.4
2018-Feb-23 07:59N 15°29' W 061°38'713.0
2018-Feb-23 07:27N 15°35' W 061°41'1012.1
2018-Feb-23 06:36N 15°44' W 061°46'311.4
2018-Feb-23 06:20N 15°47' W 061°47'2211.9
2018-Feb-23 04:31N 16°06' W 061°57'011.7
2018-Feb-23 04:30N 16°06' W 061°57'611.7
2018-Feb-23 04:00N 16°11' W 062°00'510.8
2018-Feb-23 03:30N 16°16' W 062°02'510.6
2018-Feb-23 03:00N 16°22' W 062°02'511.0
2018-Feb-23 02:30N 16°27' W 062°01'611.2
2018-Feb-23 02:00N 16°33' W 062°01'611.5
2018-Feb-23 01:30N 16°38' W 061°60'612.3
2018-Feb-23 01:00N 16°44' W 061°60'612.2
2018-Feb-23 00:30N 16°51' W 062°00'612.1
2018-Feb-23 00:00N 16°57' W 061°59'612.3
2018-Feb-22 23:30N 17°03' W 061°58'611.3
2018-Feb-22 23:00N 17°08' W 061°58'510.3
2018-Feb-22 22:29N 17°08' W 061°52'1 2.2
2018-Feb-22 21:58N 17°07' W 061°51'0 0.0
2018-Feb-22 21:28N 17°07' W 061°51'0 0.0
2018-Feb-22 20:58N 17°07' W 061°51'0 0.0
2018-Feb-22 20:30N 17°07' W 061°51'0 0.0
2018-Feb-22 20:00N 17°07' W 061°51'0 0.0
2018-Feb-22 19:30N 17°07' W 061°51'0 0.0
2018-Feb-22 19:00N 17°07' W 061°51'0 0.0
2018-Feb-22 18:30N 17°07' W 061°51'0 0.0
2018-Feb-22 17:59N 17°07' W 061°51'0 0.0
2018-Feb-22 17:29N 17°07' W 061°51'0 0.0
2018-Feb-22 16:59N 17°07' W 061°51'0 0.0
2018-Feb-22 16:29N 17°07' W 061°51'0 0.0
2018-Feb-22 15:59N 17°07' W 061°51'0 0.0
2018-Feb-22 15:28N 17°07' W 061°51'0 0.0
2018-Feb-22 14:58N 17°07' W 061°51'0 0.0
2018-Feb-22 14:28N 17°07' W 061°51'0 0.0
2018-Feb-22 13:58N 17°07' W 061°51'0 0.0
2018-Feb-22 13:30N 17°07' W 061°51'0 0.0
2018-Feb-22 13:00N 17°07' W 061°51'0 0.0
2018-Feb-22 12:30N 17°07' W 061°51'0 0.0
2018-Feb-22 12:00N 17°07' W 061°51'0 0.0
2018-Feb-22 11:29N 17°07' W 061°51'1 2.4
2018-Feb-22 11:00N 17°08' W 061°52'3 6.8
2018-Feb-22 10:30N 17°10' W 061°55'1 2.8
2018-Feb-22 10:00N 17°09' W 061°54'4 7.4
2018-Feb-22 09:30N 17°09' W 061°58'611.0
2018-Feb-22 09:00N 17°05' W 062°02'510.8
2018-Feb-22 08:30N 17°01' W 062°06'510.2
2018-Feb-22 08:00N 16°58' W 062°11'510.0
2018-Feb-22 07:30N 16°55' W 062°15'5 9.9
2018-Feb-22 07:00N 16°53' W 062°19'510.5
2018-Feb-22 06:30N 16°50' W 062°24'510.7
2018-Feb-22 06:00N 16°47' W 062°29'510.5
2018-Feb-22 05:30N 16°44' W 062°33'5 9.7
2018-Feb-22 05:00N 16°43' W 062°38'1111.3
2018-Feb-22 04:00N 16°49' W 062°48'28 2.5
2018-Feb-21 16:52N 17°17' W 062°44'615.9
2018-Feb-21 16:30N 17°15' W 062°50'1020.2
2018-Feb-21 16:00N 17°13' W 062°60'2320.3
2018-Feb-21 14:52N 17°07' W 063°23'  
2018-Feb-18 05:57N 15°53' W 061°48'2111.3
2018-Feb-18 04:04N 16°07' W 061°31'210.6
2018-Feb-18 03:54N 16°09' W 061°31'4 7.9
2018-Feb-18 03:26N 16°12' W 061°32'2 4.6
2018-Feb-18 03:00N 16°14' W 061°32'0 0.0
2018-Feb-18 02:30N 16°14' W 061°32'0 0.0
2018-Feb-18 01:57N 16°14' W 061°32'0 0.0
2018-Feb-18 01:30N 16°14' W 061°32'0 0.0
2018-Feb-18 00:53N 16°14' W 061°32'0 0.0
2018-Feb-18 00:29N 16°14' W 061°32'0 0.0
2018-Feb-17 23:53N 16°14' W 061°32'0 0.0
2018-Feb-17 23:26N 16°14' W 061°32'0 0.0
2018-Feb-17 22:56N 16°14' W 061°32'0 0.0
2018-Feb-17 22:22N 16°14' W 061°32'0 0.0
2018-Feb-17 21:55N 16°14' W 061°32'0 0.0
2018-Feb-17 21:28N 16°14' W 061°32'0 0.0
2018-Feb-17 20:40N 16°14' W 061°32'0 0.0
2018-Feb-17 20:22N 16°14' W 061°32'0 0.0
2018-Feb-17 19:54N 16°14' W 061°32'0 0.0
2018-Feb-17 19:30N 16°14' W 061°32'0 0.0
2018-Feb-17 18:54N 16°14' W 061°32'0 0.0
2018-Feb-17 17:59N 16°14' W 061°32'0 0.0
2018-Feb-17 17:29N 16°14' W 061°32'0 0.0
2018-Feb-17 16:59N 16°14' W 061°32'0 0.0
2018-Feb-17 16:29N 16°14' W 061°32'0 0.0
2018-Feb-17 15:56N 16°14' W 061°32'0 0.0
2018-Feb-17 15:25N 16°14' W 061°32'0 0.0
2018-Feb-17 14:58N 16°14' W 061°32'0 0.0
2018-Feb-17 14:25N 16°14' W 061°32'0 0.0
2018-Feb-17 13:58N 16°14' W 061°32'0 0.0
2018-Feb-17 13:18N 16°14' W 061°32'0 0.0
2018-Feb-17 12:51N 16°14' W 061°32'0 0.0
2018-Feb-17 12:24N 16°14' W 061°32'0 0.0
2018-Feb-17 11:45N 16°14' W 061°32'0 0.0
2018-Feb-17 11:30N 16°14' W 061°32'2 3.3
2018-Feb-17 11:00N 16°13' W 061°32'3 6.9
2018-Feb-17 10:30N 16°09' W 061°31'4 7.5
2018-Feb-17 10:00N 16°06' W 061°28'510.7
2018-Feb-17 09:30N 16°01' W 061°29'1311.5
2018-Feb-17 08:20N 15°48' W 061°33'7012.0
2018-Feb-17 02:29N 14°40' W 061°17'612.3
2018-Feb-17 01:58N 14°36' W 061°11'612.5
2018-Feb-17 01:30N 14°35' W 061°05'2 4.1
2018-Feb-17 01:00N 14°36' W 061°04'0 0.0
2018-Feb-17 00:30N 14°36' W 061°04'0 0.0
2018-Feb-17 00:00N 14°36' W 061°04'0 0.0
2018-Feb-16 23:30N 14°36' W 061°04'0 0.0
2018-Feb-16 22:59N 14°36' W 061°04'0 0.0
2018-Feb-16 22:29N 14°36' W 061°04'0 0.0
2018-Feb-16 21:59N 14°36' W 061°04'0 0.0
2018-Feb-16 21:29N 14°36' W 061°04'0 0.0
2018-Feb-16 20:58N 14°36' W 061°04'0 0.0
2018-Feb-16 20:25N 14°36' W 061°04'0 0.0
2018-Feb-16 19:58N 14°36' W 061°04'0 0.0
2018-Feb-16 19:28N 14°36' W 061°04'0 0.0
2018-Feb-16 18:58N 14°36' W 061°04'0 0.0
2018-Feb-16 18:30N 14°36' W 061°04'0 0.0
2018-Feb-16 18:00N 14°36' W 061°04'0 0.0
2018-Feb-16 17:30N 14°36' W 061°04'0 0.0
2018-Feb-16 17:00N 14°36' W 061°04'0 0.0
2018-Feb-16 16:23N 14°36' W 061°04'0 0.0
2018-Feb-16 15:56N 14°36' W 061°04'0 0.0
2018-Feb-16 15:29N 14°36' W 061°04'0 0.0
2018-Feb-16 14:59N 14°36' W 061°04'0 0.0
2018-Feb-16 14:29N 14°36' W 061°04'0 0.0
2018-Feb-16 13:58N 14°36' W 061°04'0 0.0
2018-Feb-16 13:28N 14°36' W 061°04'0 0.0
2018-Feb-16 12:58N 14°36' W 061°04'0 0.3
2018-Feb-16 12:30N 14°36' W 061°04'2 3.1
2018-Feb-16 12:00N 14°35' W 061°05'913.8
2018-Feb-16 11:23N 14°39' W 061°12'4113.8
2018-Feb-16 08:24N 15°16' W 061°32'913.5
2018-Feb-16 07:45N 15°24' W 061°35'313.3
2018-Feb-16 07:30N 15°27' W 061°37'712.9
2018-Feb-16 06:58N 15°33' W 061°40'612.6
2018-Feb-16 06:30N 15°38' W 061°43'712.3
2018-Feb-16 05:57N 15°44' W 061°46'612.5
2018-Feb-16 05:26N 15°50' W 061°49'1812.8
2018-Feb-16 04:00N 16°07' W 061°57'713.0
2018-Feb-16 03:30N 16°13' W 061°60'612.3
2018-Feb-16 03:00N 16°18' W 062°02'612.5
2018-Feb-16 02:30N 16°25' W 062°01'612.4
2018-Feb-16 02:00N 16°31' W 062°01'612.4
2018-Feb-16 01:30N 16°37' W 062°00'612.5
2018-Feb-16 01:00N 16°43' W 061°60'612.7
2018-Feb-16 00:30N 16°50' W 061°59'713.0
2018-Feb-16 00:00N 16°56' W 061°59'713.1
2018-Feb-15 23:30N 17°03' W 061°59'612.2
2018-Feb-15 23:00N 17°09' W 061°57'510.1
2018-Feb-15 22:30N 17°08' W 061°52'1 2.1
2018-Feb-15 22:00N 17°07' W 061°51'0 0.0
2018-Feb-15 21:29N 17°07' W 061°51'0 0.0
2018-Feb-15 20:59N 17°07' W 061°51'0 0.0
2018-Feb-15 20:29N 17°07' W 061°51'0 0.0
2018-Feb-15 19:59N 17°07' W 061°51'0 0.0
2018-Feb-15 19:28N 17°07' W 061°51'0 0.0
2018-Feb-15 18:58N 17°07' W 061°51'0 0.0
2018-Feb-15 18:28N 17°07' W 061°51'0 0.0
2018-Feb-15 17:58N 17°07' W 061°51'0 0.0
2018-Feb-15 17:28N 17°07' W 061°51'0 0.0
2018-Feb-15 17:00N 17°07' W 061°51'0 0.0
2018-Feb-15 16:30N 17°07' W 061°51'0 0.0
2018-Feb-15 16:00N 17°07' W 061°51'0 0.0
2018-Feb-15 15:30N 17°07' W 061°51'0 0.0
2018-Feb-15 14:57N 17°07' W 061°51'0 0.0
2018-Feb-15 14:29N 17°07' W 061°51'0 0.0
2018-Feb-15 13:59N 17°07' W 061°51'0 0.0
2018-Feb-15 13:29N 17°07' W 061°51'0 0.0
2018-Feb-15 12:59N 17°07' W 061°51'0 0.0
2018-Feb-15 12:28N 17°07' W 061°51'0 0.0
2018-Feb-15 11:58N 17°07' W 061°51'0 0.0
2018-Feb-15 11:28N 17°07' W 061°51'0 0.0
2018-Feb-15 10:55N 17°07' W 061°51'0 0.1
2018-Feb-15 10:30N 17°07' W 061°51'3 5.7
2018-Feb-15 10:00N 17°08' W 061°54'4 7.8
2018-Feb-15 09:29N 17°09' W 061°58'5 9.8
2018-Feb-15 09:00N 17°05' W 062°02'510.6
2018-Feb-15 08:30N 17°02' W 062°06'611.1
2018-Feb-15 08:00N 16°58' W 062°10'611.0
2018-Feb-15 07:30N 16°54' W 062°14'510.8
2018-Feb-15 07:00N 16°51' W 062°18'611.0
2018-Feb-15 06:30N 16°47' W 062°22'611.1
2018-Feb-15 06:00N 16°43' W 062°27'611.3
2018-Feb-15 05:30N 16°39' W 062°31'5 9.9
2018-Feb-15 05:00N 16°39' W 062°36'1611.8
2018-Feb-15 03:38N 16°50' W 062°48'910.7
2018-Feb-15 02:48N 16°58' W 062°51'18 1.8
2018-Feb-14 17:05N 17°16' W 062°48'420.1
2018-Feb-14 16:53N 17°15' W 062°51'820.2
2018-Feb-14 16:30N 17°13' W 062°59'1720.0
2018-Feb-14 15:38N 17°08' W 063°17'  

Dump ship's entire track history